createdAt,value
2023-03-22T00:00:24.777Z,54.72461
2023-03-22T00:00:54.774Z,55.13965
2023-03-22T00:01:24.791Z,55.11133
2023-03-22T00:01:54.778Z,55.67285
2023-03-22T00:02:24.816Z,54.86523
2023-03-22T00:02:54.851Z,54.23633
2023-03-22T00:03:24.800Z,54.23438
2023-03-22T00:03:54.833Z,54.39551
2023-03-22T00:04:24.786Z,55.25488
2023-03-22T00:04:54.780Z,55.24023
2023-03-22T00:05:24.771Z,54.92969
2023-03-22T00:05:54.771Z,55.03418
2023-03-22T00:06:24.774Z,54.92871
2023-03-22T00:06:54.780Z,54.60059
2023-03-22T00:07:24.783Z,54.57129
2023-03-22T00:07:54.774Z,54.28027
2023-03-22T00:08:24.771Z,53.98828
2023-03-22T00:08:54.772Z,54.17773
2023-03-22T00:09:24.794Z,55.14063
2023-03-22T00:09:54.771Z,55.95898
2023-03-22T00:10:24.774Z,55.4209
2023-03-22T00:10:54.773Z,54.82715
2023-03-22T00:11:24.772Z,54.31152
2023-03-22T00:11:54.773Z,53.92871
2023-03-22T00:12:24.770Z,53.55469
2023-03-22T00:12:54.776Z,53.78418
2023-03-22T00:13:24.775Z,54.04004
2023-03-22T00:13:55.013Z,54.2627
2023-03-22T00:14:24.779Z,54.3125
2023-03-22T00:14:54.770Z,54.47852
2023-03-22T00:15:24.802Z,54.75195
2023-03-22T00:15:54.804Z,54.32715
2023-03-22T00:16:24.838Z,53.91602
2023-03-22T00:16:54.771Z,53.67773
2023-03-22T00:17:24.774Z,53.5752
2023-03-22T00:17:54.773Z,53.55469
2023-03-22T00:18:24.772Z,54.22656
2023-03-22T00:18:54.774Z,54.6875
2023-03-22T00:19:24.772Z,54.68555
2023-03-22T00:19:54.772Z,54.49219
2023-03-22T00:20:24.771Z,54.19434
2023-03-22T00:20:54.773Z,53.85645
2023-03-22T00:21:24.775Z,54.12402
2023-03-22T00:21:54.774Z,53.88086
2023-03-22T00:22:24.772Z,53.95117
2023-03-22T00:22:54.774Z,54.46289
2023-03-22T00:23:24.772Z,54.62695
2023-03-22T00:23:54.773Z,54.84863
2023-03-22T00:24:24.772Z,54.6748
2023-03-22T00:24:54.782Z,55.45605
2023-03-22T00:25:24.775Z,55.54395
2023-03-22T00:25:54.771Z,55.27441
2023-03-22T00:26:24.813Z,55.81152
2023-03-22T00:26:54.772Z,55.41406
2023-03-22T00:27:24.772Z,55.27441
2023-03-22T00:27:54.783Z,55.46387
2023-03-22T00:28:24.785Z,55.98242
2023-03-22T00:28:54.787Z,55.71484
2023-03-22T00:29:24.775Z,55.03906
2023-03-22T00:29:54.779Z,54.56641
2023-03-22T00:30:24.782Z,54.45703
2023-03-22T00:30:54.791Z,54.07129
2023-03-22T00:31:24.785Z,53.83496
2023-03-22T00:31:54.776Z,53.73438
2023-03-22T00:32:24.774Z,54.69141
2023-03-22T00:32:54.778Z,55.19727
2023-03-22T00:33:24.778Z,55.24512
2023-03-22T00:33:54.780Z,55.78906
2023-03-22T00:34:24.784Z,56.15039
2023-03-22T00:34:54.775Z,56.14941
2023-03-22T00:35:24.815Z,56.58984
2023-03-22T00:35:54.814Z,56.55273
2023-03-22T00:36:24.779Z,55.84961
2023-03-22T00:36:54.775Z,55.65137
2023-03-22T00:37:24.776Z,55.24121
2023-03-22T00:37:54.776Z,54.73633
2023-03-22T00:38:35.947Z,55.40918
2023-03-22T00:38:55.704Z,55.61133
2023-03-22T00:39:24.779Z,55.43164
2023-03-22T00:39:54.781Z,55.31445
2023-03-22T00:40:24.777Z,55.18066
2023-03-22T00:40:54.782Z,55.07617
2023-03-22T00:41:24.779Z,55.66992
2023-03-22T00:41:54.784Z,55.65527
2023-03-22T00:42:24.782Z,55.89648
2023-03-22T00:42:54.786Z,55.48242
2023-03-22T00:43:24.785Z,55.58984
2023-03-22T00:43:54.790Z,56.4834
2023-03-22T00:44:24.792Z,56.86035
2023-03-22T00:44:54.785Z,56.54395
2023-03-22T00:45:24.777Z,56.28809
2023-03-22T00:45:54.793Z,56.74219
2023-03-22T00:46:24.800Z,56.92871
2023-03-22T00:46:54.780Z,57.36523
2023-03-22T00:47:24.779Z,57.39355
2023-03-22T00:47:54.874Z,57.1582
2023-03-22T00:48:24.877Z,56.62891
2023-03-22T00:48:54.783Z,57.11719
2023-03-22T00:49:24.782Z,57.15625
2023-03-22T00:49:54.786Z,56.82813
2023-03-22T00:50:24.780Z,56.28027
2023-03-22T00:50:54.778Z,56.60254
2023-03-22T00:51:24.784Z,56.77246
2023-03-22T00:51:54.780Z,56.8877
2023-03-22T00:52:24.785Z,56.56934
2023-03-22T00:52:54.778Z,56.50879
2023-03-22T00:53:24.799Z,56.39355
2023-03-22T00:53:54.803Z,56.55371
2023-03-22T00:54:24.789Z,56.58594
2023-03-22T00:54:54.783Z,56.93262
2023-03-22T00:55:24.785Z,57.42969
2023-03-22T00:55:54.779Z,57.15039
2023-03-22T00:56:24.786Z,56.92773
2023-03-22T00:56:54.802Z,57.2334
2023-03-22T00:57:24.782Z,56.66113
2023-03-22T00:57:54.790Z,56.20117
2023-03-22T00:58:24.808Z,55.6875
2023-03-22T00:58:54.792Z,55.67383
2023-03-22T00:59:24.812Z,55.37207
2023-03-22T00:59:54.781Z,55.5166
2023-03-22T01:00:24.789Z,55.87988
2023-03-22T01:00:54.802Z,55.68945
2023-03-22T01:01:24.831Z,55.4502
2023-03-22T01:01:54.783Z,55.4209
2023-03-22T01:02:24.782Z,55.51465
2023-03-22T01:02:54.780Z,55.76758
2023-03-22T01:03:24.895Z,56.68457
2023-03-22T01:03:54.902Z,56.97559
2023-03-22T01:04:24.781Z,56.36719
2023-03-22T01:04:54.780Z,56.26074
2023-03-22T01:05:24.780Z,56.49414
2023-03-22T01:05:54.782Z,56.03906
2023-03-22T01:06:24.780Z,55.97559
2023-03-22T01:06:54.783Z,55.82813
2023-03-22T01:07:24.779Z,55.79004
2023-03-22T01:07:54.777Z,55.58105
2023-03-22T01:08:24.774Z,56.01367
2023-03-22T01:08:54.781Z,56.24609
2023-03-22T01:09:24.778Z,56.30957
2023-03-22T01:09:54.777Z,56.06348
2023-03-22T01:10:24.778Z,56.75098
2023-03-22T01:10:54.777Z,57.33691
2023-03-22T01:11:24.781Z,57.71777
2023-03-22T01:11:54.784Z,57.67969
2023-03-22T01:12:24.788Z,57.57422
2023-03-22T01:12:54.795Z,58.05566
2023-03-22T01:13:24.789Z,58.17676
2023-03-22T01:13:54.781Z,57.38184
2023-03-22T01:14:24.778Z,57.42676
2023-03-22T01:14:54.780Z,57.70215
2023-03-22T01:15:24.780Z,57.98438
2023-03-22T01:15:54.789Z,58.09961
2023-03-22T01:16:24.859Z,58.26758
2023-03-22T01:16:54.827Z,57.79004
2023-03-22T01:17:24.800Z,57.53809
2023-03-22T01:17:54.781Z,56.9375
2023-03-22T01:18:24.779Z,56.71289
2023-03-22T01:18:54.784Z,56.48633
2023-03-22T01:19:24.793Z,56.93457
2023-03-22T01:19:54.792Z,56.75781
2023-03-22T01:20:24.782Z,56.58105
2023-03-22T01:20:54.778Z,56.8584
2023-03-22T01:21:24.780Z,57.38672
2023-03-22T01:21:54.781Z,57.06445
2023-03-22T01:22:24.779Z,57.14355
2023-03-22T01:22:54.777Z,58.0293
2023-03-22T01:23:24.781Z,58.04199
2023-03-22T01:23:54.778Z,57.61719
2023-03-22T01:24:24.778Z,57.22656
2023-03-22T01:24:54.784Z,57.22852
2023-03-22T01:25:24.788Z,57.81934
2023-03-22T01:25:54.783Z,58.55469
2023-03-22T01:26:24.780Z,58.50586
2023-03-22T01:26:54.787Z,58.32324
2023-03-22T01:27:24.785Z,58.15234
2023-03-22T01:27:54.786Z,58.2793
2023-03-22T01:28:27.069Z,58.21094
2023-03-22T01:28:54.779Z,58.53418
2023-03-22T01:29:24.779Z,59.25781
2023-03-22T01:29:54.780Z,59.20996
2023-03-22T01:30:24.850Z,59.20508
2023-03-22T01:30:54.820Z,59.18359
2023-03-22T01:31:24.784Z,58.94922
2023-03-22T01:31:54.783Z,59.52539
2023-03-22T01:32:24.778Z,59.92285
2023-03-22T01:32:54.781Z,59.80176
2023-03-22T01:33:24.788Z,59.73438
2023-03-22T01:33:54.798Z,59.56445
2023-03-22T01:34:24.811Z,58.99609
2023-03-22T01:34:54.785Z,58.34863
2023-03-22T01:35:24.867Z,57.6416
2023-03-22T01:35:54.832Z,57.30176
2023-03-22T01:36:24.786Z,57.73047
2023-03-22T01:36:54.786Z,58.16797
2023-03-22T01:37:24.783Z,58.23145
2023-03-22T01:37:54.786Z,58.0166
2023-03-22T01:38:24.788Z,58.2832
2023-03-22T01:38:54.785Z,57.81738
2023-03-22T01:39:24.785Z,58.52539
2023-03-22T01:39:54.783Z,58.35449
2023-03-22T01:40:24.782Z,58.31055
2023-03-22T01:40:54.800Z,58.93359
2023-03-22T01:41:24.789Z,59.05469
2023-03-22T01:41:54.795Z,58.6084
2023-03-22T01:42:24.787Z,58.80762
2023-03-22T01:42:54.788Z,59.31152
2023-03-22T01:43:24.786Z,59.0957
2023-03-22T01:43:54.784Z,59.08398
2023-03-22T01:44:24.784Z,59.04297
2023-03-22T01:44:54.785Z,59.13477
2023-03-22T01:45:24.792Z,59.48438
2023-03-22T01:45:54.873Z,59.7207
2023-03-22T01:46:24.830Z,59.7168
2023-03-22T01:46:54.788Z,59.50977
2023-03-22T01:47:24.785Z,60.30957
2023-03-22T01:47:54.838Z,60.07422
2023-03-22T01:48:24.825Z,59.19922
2023-03-22T01:48:54.857Z,59.57227
2023-03-22T01:49:24.841Z,58.91895
2023-03-22T01:49:54.788Z,59.07324
2023-03-22T01:50:24.784Z,59.04199
2023-03-22T01:50:54.788Z,59.16211
2023-03-22T01:51:24.810Z,58.81055
2023-03-22T01:51:54.792Z,59.12109
2023-03-22T01:52:24.785Z,59.00684
2023-03-22T01:52:54.786Z,58.31348
2023-03-22T01:53:24.797Z,58.13184
2023-03-22T01:53:54.786Z,57.91699
2023-03-22T01:54:24.789Z,57.90039
2023-03-22T01:54:54.785Z,57.91504
2023-03-22T01:55:24.791Z,57.90918
2023-03-22T01:55:54.786Z,57.61523
2023-03-22T01:56:24.793Z,57.56738
2023-03-22T01:56:54.807Z,57.93555
2023-03-22T01:57:24.799Z,58.44336
2023-03-22T01:57:54.789Z,58.92285
2023-03-22T01:58:24.790Z,59.26367
2023-03-22T01:58:54.788Z,58.78027
2023-03-22T01:59:24.788Z,58.82031
2023-03-22T01:59:54.787Z,58.75781
2023-03-22T02:00:24.789Z,58.85938
2023-03-22T02:00:54.790Z,60.40723
2023-03-22T02:01:24.869Z,59.88965
2023-03-22T02:01:54.797Z,59.51758
2023-03-22T02:02:24.829Z,60.23242
2023-03-22T02:02:54.809Z,59.81641
2023-03-22T02:03:24.799Z,59.47949
2023-03-22T02:03:54.786Z,59.50098
2023-03-22T02:04:24.788Z,59.41504
2023-03-22T02:04:54.793Z,58.85938
2023-03-22T02:05:24.792Z,58.68652
2023-03-22T02:05:54.803Z,58.91211
2023-03-22T02:06:24.817Z,58.7998
2023-03-22T02:06:54.815Z,58.84082
2023-03-22T02:07:24.795Z,59.36914
2023-03-22T02:07:54.802Z,59.40039
2023-03-22T02:08:24.792Z,59.98438
2023-03-22T02:08:54.790Z,59.86328
2023-03-22T02:09:24.800Z,59.91309
2023-03-22T02:09:54.794Z,59.43652
2023-03-22T02:10:24.798Z,59.02832
2023-03-22T02:10:54.789Z,59.50586
2023-03-22T02:11:24.795Z,59.16016
2023-03-22T02:11:54.797Z,59.44629
2023-03-22T02:12:24.787Z,58.92969
2023-03-22T02:12:54.789Z,58.45801
2023-03-22T02:13:24.788Z,59.01074
2023-03-22T02:13:54.788Z,59.24316
2023-03-22T02:14:27.129Z,59.18555
2023-03-22T02:14:54.788Z,59.50293
2023-03-22T02:15:24.791Z,59.22559
2023-03-22T02:15:54.869Z,59.5
2023-03-22T02:16:24.788Z,59.74219
2023-03-22T02:16:54.791Z,60.65332
2023-03-22T02:17:24.797Z,59.47559
2023-03-22T02:17:54.788Z,58.95215
2023-03-22T02:18:24.788Z,58.6123
2023-03-22T02:18:54.799Z,58.00781
2023-03-22T02:19:24.789Z,57.73145
2023-03-22T02:19:54.790Z,57.41016
2023-03-22T02:20:24.798Z,57.29492
2023-03-22T02:20:54.791Z,57.08984
2023-03-22T02:21:24.798Z,56.71582
2023-03-22T02:21:54.792Z,56.61621
2023-03-22T02:22:24.788Z,56.90918
2023-03-22T02:22:54.790Z,57.34277
2023-03-22T02:23:24.789Z,57.26953
2023-03-22T02:23:54.796Z,56.81641
2023-03-22T02:24:24.789Z,56.50293
2023-03-22T02:24:54.790Z,56.30566
2023-03-22T02:25:24.804Z,56.50977
2023-03-22T02:25:54.793Z,56.61621
2023-03-22T02:26:24.808Z,56.76172
2023-03-22T02:26:54.799Z,56.75391
2023-03-22T02:27:24.792Z,56.64648
2023-03-22T02:27:54.791Z,56.76465
2023-03-22T02:28:24.793Z,57.18359
2023-03-22T02:28:54.793Z,57.18066
2023-03-22T02:29:24.788Z,57.14844
2023-03-22T02:29:54.792Z,57.37793
2023-03-22T02:30:24.790Z,58.31543
2023-03-22T02:30:54.837Z,58.27441
2023-03-22T02:31:24.828Z,57.95215
2023-03-22T02:31:54.801Z,57.2666
2023-03-22T02:32:24.801Z,57.11914
2023-03-22T02:32:54.823Z,57.47949
2023-03-22T02:33:24.790Z,57.45898
2023-03-22T02:33:54.790Z,57.20605
2023-03-22T02:34:24.792Z,57.37598
2023-03-22T02:34:54.795Z,57.65137
2023-03-22T02:35:24.840Z,57.06738
2023-03-22T02:35:54.821Z,57.64746
2023-03-22T02:36:24.799Z,58.12793
2023-03-22T02:36:54.791Z,58.23242
2023-03-22T02:37:24.792Z,58.38477
2023-03-22T02:37:54.795Z,58.76953
2023-03-22T02:38:24.804Z,58.37598
2023-03-22T02:38:54.791Z,57.46875
2023-03-22T02:39:24.808Z,57.46191
2023-03-22T02:39:54.792Z,58.51465
2023-03-22T02:40:24.795Z,58.9043
2023-03-22T02:40:54.803Z,58.00195
2023-03-22T02:41:24.803Z,58.09668
2023-03-22T02:41:54.795Z,57.96191
2023-03-22T02:42:24.793Z,57.29883
2023-03-22T02:42:54.797Z,56.8623
2023-03-22T02:43:24.794Z,56.66016
2023-03-22T02:43:54.798Z,56.27637
2023-03-22T02:44:24.796Z,56.58691
2023-03-22T02:44:54.796Z,56.82227
2023-03-22T02:45:24.791Z,57.6543
2023-03-22T02:45:54.789Z,58.87305
2023-03-22T02:46:24.846Z,59.24609
2023-03-22T02:46:54.827Z,59.68945
2023-03-22T02:47:24.793Z,59.93066
2023-03-22T02:47:54.835Z,59.33398
2023-03-22T02:48:25.002Z,59.38184
2023-03-22T02:48:54.791Z,59.45215
2023-03-22T02:49:24.791Z,59.04199
2023-03-22T02:49:54.790Z,58.87891
2023-03-22T02:50:24.790Z,58.29102
2023-03-22T02:50:54.791Z,58.38184
2023-03-22T02:51:24.801Z,57.86914
2023-03-22T02:51:54.792Z,57.6875
2023-03-22T02:52:24.794Z,57.41992
2023-03-22T02:52:54.794Z,57.2998
2023-03-22T02:53:24.807Z,57.78809
2023-03-22T02:53:54.792Z,57.96973
2023-03-22T02:54:24.795Z,58.20703
2023-03-22T02:54:54.795Z,58.69824
2023-03-22T02:55:24.809Z,59.41113
2023-03-22T02:55:54.799Z,58.95801
2023-03-22T02:56:24.791Z,59.26953
2023-03-22T02:56:54.796Z,59.83105
2023-03-22T02:57:24.791Z,59.54199
2023-03-22T02:57:54.791Z,59.2002
2023-03-22T02:58:24.793Z,59.7793
2023-03-22T02:58:54.800Z,59.80859
2023-03-22T02:59:24.792Z,59.03418
2023-03-22T02:59:54.795Z,59.24023
2023-03-22T03:00:24.791Z,59.58203
2023-03-22T03:00:54.853Z,59.2832
2023-03-22T03:01:24.874Z,59.32227
2023-03-22T03:01:54.889Z,59.97559
2023-03-22T03:02:24.868Z,59.53125
2023-03-22T03:02:54.792Z,58.7627
2023-03-22T03:03:24.796Z,58.84277
2023-03-22T03:03:54.797Z,59.36035
2023-03-22T03:04:24.793Z,59.06152
2023-03-22T03:04:54.793Z,58.9375
2023-03-22T03:05:24.794Z,58.30762
2023-03-22T03:05:54.792Z,58.5459
2023-03-22T03:06:24.798Z,58.77832
2023-03-22T03:06:54.793Z,59.56738
2023-03-22T03:07:24.795Z,59.89941
2023-03-22T03:07:54.796Z,59.70313
2023-03-22T03:08:24.795Z,59.10156
2023-03-22T03:08:54.797Z,58.20215
2023-03-22T03:09:24.792Z,58.22949
2023-03-22T03:09:54.800Z,58.64648
2023-03-22T03:10:24.806Z,58.13281
2023-03-22T03:10:54.792Z,57.43945
2023-03-22T03:11:24.798Z,57.5127
2023-03-22T03:11:54.795Z,57.12891
2023-03-22T03:12:24.811Z,56.62988
2023-03-22T03:12:54.798Z,56.50977
2023-03-22T03:13:24.816Z,57.09766
2023-03-22T03:13:54.792Z,57.19336
2023-03-22T03:14:24.800Z,57.02734
2023-03-22T03:14:54.806Z,56.46289
2023-03-22T03:15:24.796Z,55.71777
2023-03-22T03:15:54.850Z,55.04004
2023-03-22T03:16:24.834Z,54.66016
2023-03-22T03:16:54.797Z,54.48926
2023-03-22T03:17:24.793Z,54.83398
2023-03-22T03:17:54.794Z,54.78516
2023-03-22T03:18:24.794Z,55.37207
2023-03-22T03:18:54.803Z,54.90527
2023-03-22T03:19:24.799Z,54.51758
2023-03-22T03:19:54.797Z,54.23535
2023-03-22T03:20:24.796Z,54.05273
2023-03-22T03:20:54.793Z,53.85742
2023-03-22T03:21:24.794Z,53.93652
2023-03-22T03:21:54.798Z,55.30176
2023-03-22T03:22:24.794Z,56.02441
2023-03-22T03:22:54.801Z,56.24414
2023-03-22T03:23:24.795Z,55.59375
2023-03-22T03:23:54.802Z,54.82129
2023-03-22T03:24:24.812Z,54.47656
2023-03-22T03:24:54.828Z,54.14551
2023-03-22T03:25:24.806Z,54.17676
2023-03-22T03:25:54.795Z,53.85156
2023-03-22T03:26:24.801Z,53.91992
2023-03-22T03:26:54.803Z,53.84277
2023-03-22T03:27:24.795Z,54.34766
2023-03-22T03:27:54.803Z,54.77148
2023-03-22T03:28:24.795Z,55.19043
2023-03-22T03:28:54.804Z,54.80566
2023-03-22T03:29:24.798Z,54.80176
2023-03-22T03:29:54.795Z,54.47363
2023-03-22T03:30:24.799Z,54.43262
2023-03-22T03:30:54.797Z,54.88867
2023-03-22T03:31:24.867Z,55.43457
2023-03-22T03:31:54.912Z,55.6084
2023-03-22T03:32:24.800Z,54.97852
2023-03-22T03:32:54.809Z,54.42188
2023-03-22T03:33:24.803Z,53.90527
2023-03-22T03:33:54.800Z,53.79688
2023-03-22T03:34:24.798Z,53.94922
2023-03-22T03:34:54.797Z,55.2832
2023-03-22T03:35:24.804Z,55.75391
2023-03-22T03:35:54.850Z,56.93164
2023-03-22T03:36:24.795Z,56.62109
2023-03-22T03:36:54.811Z,55.92773
2023-03-22T03:37:24.801Z,55.44336
2023-03-22T03:37:54.797Z,54.81738
2023-03-22T03:38:24.800Z,54.36621
2023-03-22T03:38:54.802Z,55.00781
2023-03-22T03:39:24.806Z,54.83887
2023-03-22T03:39:54.805Z,54.38184
2023-03-22T03:40:24.797Z,53.61426
2023-03-22T03:40:54.798Z,53.2666
2023-03-22T03:41:24.797Z,52.79004
2023-03-22T03:41:54.797Z,52.51758
2023-03-22T03:42:24.799Z,52.83887
2023-03-22T03:42:54.800Z,52.86328
2023-03-22T03:43:24.798Z,52.83398
2023-03-22T03:43:54.805Z,52.67578
2023-03-22T03:44:24.802Z,52.64746
2023-03-22T03:44:54.803Z,52.54199
2023-03-22T03:45:24.995Z,52.26953
2023-03-22T03:45:54.929Z,52.37793
2023-03-22T03:46:24.824Z,53.14941
2023-03-22T03:46:54.805Z,53.78223
2023-03-22T03:47:24.803Z,53.5752
2023-03-22T03:47:54.848Z,53.04297
2023-03-22T03:48:24.856Z,53.23242
2023-03-22T03:48:54.811Z,53.64258
2023-03-22T03:49:24.798Z,53.20605
2023-03-22T03:49:54.804Z,52.50879
2023-03-22T03:50:24.804Z,52.08008
2023-03-22T03:50:54.803Z,51.66504
2023-03-22T03:51:24.805Z,51.46973
2023-03-22T03:51:54.808Z,51.6543
2023-03-22T03:52:24.800Z,51.98633
2023-03-22T03:52:54.805Z,52.2207
2023-03-22T03:53:24.804Z,51.96484
2023-03-22T03:53:54.813Z,51.84961
2023-03-22T03:54:24.813Z,51.33105
2023-03-22T03:54:54.812Z,50.85938
2023-03-22T03:55:24.810Z,52.21289
2023-03-22T03:55:54.802Z,52.30273
2023-03-22T03:56:24.800Z,52.42773
2023-03-22T03:56:54.804Z,52.26367
2023-03-22T03:57:24.825Z,52.35645
2023-03-22T03:57:54.810Z,52.24121
2023-03-22T03:58:24.801Z,51.94434
2023-03-22T03:58:54.801Z,51.5
2023-03-22T03:59:24.806Z,51.18262
2023-03-22T03:59:54.827Z,51.41016
2023-03-22T04:00:24.807Z,51.2959
2023-03-22T04:00:54.805Z,51.67676
2023-03-22T04:01:24.809Z,51.86816
2023-03-22T04:01:54.816Z,51.40137
2023-03-22T04:02:24.914Z,51.56543
2023-03-22T04:02:54.804Z,53.13184
2023-03-22T04:03:24.804Z,53.46094
2023-03-22T04:03:54.838Z,53.21387
2023-03-22T04:04:24.846Z,53.76758
2023-03-22T04:04:54.803Z,53.61523
2023-03-22T04:05:24.805Z,52.67871
2023-03-22T04:05:54.803Z,52.59473
2023-03-22T04:06:24.804Z,52.31348
2023-03-22T04:06:54.804Z,52.17676
2023-03-22T04:07:24.804Z,51.63281
2023-03-22T04:07:54.804Z,50.78027
2023-03-22T04:08:24.810Z,50.59375
2023-03-22T04:08:54.818Z,50.43555
2023-03-22T04:09:24.808Z,50.0918
2023-03-22T04:09:54.805Z,49.87695
2023-03-22T04:10:24.809Z,49.83008
2023-03-22T04:10:54.810Z,50.23828
2023-03-22T04:11:24.810Z,50.32129
2023-03-22T04:11:54.808Z,50.64063
2023-03-22T04:12:24.804Z,50.35156
2023-03-22T04:12:54.804Z,50.06348
2023-03-22T04:13:24.817Z,49.5459
2023-03-22T04:13:54.809Z,49.96582
2023-03-22T04:14:24.807Z,49.96973
2023-03-22T04:14:54.806Z,49.2168
2023-03-22T04:15:24.808Z,49.31152
2023-03-22T04:15:54.812Z,49.0918
2023-03-22T04:16:24.846Z,48.875
2023-03-22T04:16:54.841Z,48.50879
2023-03-22T04:17:24.812Z,48.19727
2023-03-22T04:17:54.815Z,48.20508
2023-03-22T04:18:24.823Z,49.05957
2023-03-22T04:18:54.813Z,49.49219
2023-03-22T04:19:24.819Z,49.60449
2023-03-22T04:19:54.811Z,49.45801
2023-03-22T04:20:24.805Z,50.00586
2023-03-22T04:20:54.806Z,49.9248
2023-03-22T04:21:24.813Z,49.94141
2023-03-22T04:21:54.808Z,50.4043
2023-03-22T04:22:24.806Z,50.86523
2023-03-22T04:22:54.814Z,50.58984
2023-03-22T04:23:24.812Z,50.4375
2023-03-22T04:23:54.813Z,51.18555
2023-03-22T04:24:24.812Z,52.33887
2023-03-22T04:24:54.810Z,53.83398
2023-03-22T04:25:24.810Z,53.99414
2023-03-22T04:25:54.845Z,53.94824
2023-03-22T04:26:26.669Z,53.74121
2023-03-22T04:26:54.807Z,53.49512
2023-03-22T04:27:24.818Z,52.41309
2023-03-22T04:27:54.806Z,51.31836
2023-03-22T04:28:24.812Z,50.24707
2023-03-22T04:28:54.810Z,49.97754
2023-03-22T04:29:24.808Z,49.68457
2023-03-22T04:29:54.817Z,49.34668
2023-03-22T04:30:24.863Z,49.12305
2023-03-22T04:30:54.832Z,49.32129
2023-03-22T04:31:24.865Z,49.66699
2023-03-22T04:31:54.810Z,49.38184
2023-03-22T04:32:24.816Z,49.02734
2023-03-22T04:32:54.812Z,48.37402
2023-03-22T04:33:24.807Z,48.0918
2023-03-22T04:33:54.818Z,49.4707
2023-03-22T04:34:24.810Z,50.20996
2023-03-22T04:34:54.822Z,49.88184
2023-03-22T04:35:24.856Z,49.31641
2023-03-22T04:35:54.850Z,50.35547
2023-03-22T04:36:24.812Z,50.58301
2023-03-22T04:36:54.815Z,50.89355
2023-03-22T04:37:24.808Z,50.84473
2023-03-22T04:37:54.814Z,50.47852
2023-03-22T04:38:24.814Z,49.59766
2023-03-22T04:38:54.811Z,48.88184
2023-03-22T04:39:24.807Z,48.38867
2023-03-22T04:39:54.808Z,48.2627
2023-03-22T04:40:24.811Z,47.74121
2023-03-22T04:40:54.806Z,47.26172
2023-03-22T04:41:24.820Z,46.9502
2023-03-22T04:41:54.807Z,47.32227
2023-03-22T04:42:24.810Z,47.14453
2023-03-22T04:42:54.813Z,47.75781
2023-03-22T04:43:24.807Z,48.18359
2023-03-22T04:43:54.817Z,48.53027
2023-03-22T04:44:24.806Z,48.6875
2023-03-22T04:44:54.812Z,48.2959
2023-03-22T04:45:24.813Z,48.04199
2023-03-22T04:45:55.105Z,47.56641
2023-03-22T04:46:24.906Z,47.40918
2023-03-22T04:46:54.807Z,47.125
2023-03-22T04:47:24.816Z,46.95703
2023-03-22T04:47:54.885Z,47.07813
2023-03-22T04:48:24.806Z,47.48438
2023-03-22T04:48:54.832Z,48.69727
2023-03-22T04:49:24.814Z,51.09375
2023-03-22T04:49:54.810Z,51.09082
2023-03-22T04:50:24.811Z,50.60547
2023-03-22T04:50:54.828Z,50.07324
2023-03-22T04:51:24.814Z,49.57129
2023-03-22T04:51:54.809Z,49.1709
2023-03-22T04:52:24.853Z,49.1123
2023-03-22T04:52:54.823Z,48.92676
2023-03-22T04:53:24.823Z,48.74121
2023-03-22T04:53:54.822Z,48.44824
2023-03-22T04:54:24.810Z,48.43359
2023-03-22T04:54:54.815Z,48.53418
2023-03-22T04:55:24.809Z,48.64355
2023-03-22T04:55:54.809Z,48.70703
2023-03-22T04:56:24.839Z,49.44922
2023-03-22T04:56:54.814Z,49.4873
2023-03-22T04:57:24.824Z,49.54785
2023-03-22T04:57:54.918Z,49.61816
2023-03-22T04:58:24.812Z,50.00977
2023-03-22T04:58:54.809Z,50.52832
2023-03-22T04:59:24.809Z,50.4248
2023-03-22T04:59:54.808Z,51.53223
2023-03-22T05:00:24.808Z,51.66211
2023-03-22T05:00:54.809Z,52.20508
2023-03-22T05:01:24.859Z,53.08398
2023-03-22T05:01:54.866Z,53.09277
2023-03-22T05:02:24.875Z,53.01953
2023-03-22T05:02:54.887Z,52.60645
2023-03-22T05:03:24.815Z,52.14941
2023-03-22T05:03:54.808Z,51.61133
2023-03-22T05:04:24.824Z,52.51953
2023-03-22T05:04:54.810Z,52.4834
2023-03-22T05:05:24.827Z,52.42188
2023-03-22T05:05:54.822Z,52.47461
2023-03-22T05:06:24.810Z,52.3418
2023-03-22T05:06:54.812Z,52.88281
2023-03-22T05:07:24.812Z,53.27051
2023-03-22T05:07:54.819Z,54.51465
2023-03-22T05:08:24.841Z,54.49219
2023-03-22T05:08:54.816Z,54.22949
2023-03-22T05:09:24.826Z,53.5498
2023-03-22T05:09:54.810Z,54.41113
2023-03-22T05:10:24.810Z,53.61914
2023-03-22T05:10:54.810Z,54.24512
2023-03-22T05:11:24.808Z,54.5625
2023-03-22T05:11:54.813Z,54.63867
2023-03-22T05:12:24.808Z,54.56641
2023-03-22T05:12:54.813Z,54.44336
2023-03-22T05:13:24.820Z,55.83496
2023-03-22T05:13:54.812Z,55.51074
2023-03-22T05:14:24.845Z,55.02246
2023-03-22T05:14:54.824Z,53.91211
2023-03-22T05:15:24.819Z,53.10449
2023-03-22T05:15:54.845Z,53.16113
2023-03-22T05:16:24.951Z,52.75684
2023-03-22T05:16:55.012Z,52.53027
2023-03-22T05:17:24.818Z,52.82129
2023-03-22T05:17:54.816Z,52.96973
2023-03-22T05:18:24.808Z,53.4834
2023-03-22T05:18:54.810Z,52.7207
2023-03-22T05:19:24.853Z,51.80371
2023-03-22T05:19:54.811Z,51.22559
2023-03-22T05:20:24.812Z,51.56738
2023-03-22T05:20:54.810Z,51.50977
2023-03-22T05:21:24.815Z,51.3457
2023-03-22T05:21:54.822Z,50.77734
2023-03-22T05:22:24.829Z,50.68848
2023-03-22T05:22:54.818Z,50.9375
2023-03-22T05:23:24.822Z,51.24023
2023-03-22T05:23:54.815Z,53.27539
2023-03-22T05:24:24.820Z,53.31738
2023-03-22T05:24:54.811Z,53.33008
2023-03-22T05:25:24.823Z,53.58789
2023-03-22T05:25:54.811Z,53.30273
2023-03-22T05:26:24.815Z,52.61328
2023-03-22T05:26:54.817Z,51.97266
2023-03-22T05:27:24.815Z,51.8584
2023-03-22T05:27:54.811Z,51.00586
2023-03-22T05:28:24.815Z,51.40332
2023-03-22T05:28:54.814Z,51.52441
2023-03-22T05:29:24.816Z,52.43652
2023-03-22T05:29:54.811Z,53.16797
2023-03-22T05:30:24.814Z,53.43457
2023-03-22T05:30:57.040Z,53.23828
2023-03-22T05:31:24.859Z,52.2041
2023-03-22T05:31:54.888Z,51.33398
2023-03-22T05:32:24.814Z,51.94141
2023-03-22T05:32:54.812Z,52.69824
2023-03-22T05:33:24.817Z,52.98926
2023-03-22T05:33:54.816Z,52.37109
2023-03-22T05:34:24.819Z,51.6416
2023-03-22T05:34:54.815Z,51.03125
2023-03-22T05:35:24.909Z,50.35938
2023-03-22T05:35:54.851Z,50.10547
2023-03-22T05:36:24.819Z,50.18262
2023-03-22T05:36:54.829Z,49.67773
2023-03-22T05:37:24.823Z,48.96387
2023-03-22T05:37:54.819Z,49.29492
2023-03-22T05:38:24.825Z,49.37402
2023-03-22T05:38:54.820Z,49.69531
2023-03-22T05:39:24.825Z,49.92969
2023-03-22T05:39:54.822Z,50.04492
2023-03-22T05:40:24.820Z,49.71289
2023-03-22T05:40:54.831Z,49.45801
2023-03-22T05:41:24.837Z,50.0752
2023-03-22T05:41:54.825Z,50.56445
2023-03-22T05:42:24.818Z,50.96191
2023-03-22T05:42:54.827Z,50.89355
2023-03-22T05:43:24.825Z,50.58984
2023-03-22T05:43:54.819Z,51.69727
2023-03-22T05:44:24.826Z,51.5791
2023-03-22T05:44:54.836Z,52.0498
2023-03-22T05:45:24.819Z,53.5166
2023-03-22T05:45:54.827Z,52.85742
2023-03-22T05:46:24.836Z,52.54395
2023-03-22T05:46:54.876Z,52.93652
2023-03-22T05:47:24.823Z,52.41211
2023-03-22T05:47:54.842Z,52.74316
2023-03-22T05:48:24.857Z,52.65625
2023-03-22T05:48:54.823Z,51.88184
2023-03-22T05:49:24.821Z,51.12598
2023-03-22T05:49:54.820Z,50.1709
2023-03-22T05:50:24.824Z,49.80859
2023-03-22T05:50:54.829Z,49.81152
2023-03-22T05:51:24.825Z,49.51074
2023-03-22T05:51:54.825Z,49.36035
2023-03-22T05:52:24.832Z,48.79102
2023-03-22T05:52:54.822Z,49.31152
2023-03-22T05:53:24.826Z,50.03906
2023-03-22T05:53:54.823Z,50.50293